Time;durP1;ratioP1;P1;durP2;ratioP2;P2;SDS_P1;SDS_P2;PMS_P1;PMS_P2;Temp;Humidity;BMP_temperature;BMP_pressure;BME280_temperature;BME280_humidity;BME280_pressure;Samples;Min_cycle;Max_cycle;Signal;HPM_P1;HPM_P2
2023/12/29 00:00:26;;;;;;;132.80;57.97;;;18.70;64.50;;;;;;4905510;28;86014;-39
2023/12/29 00:02:52;;;;;;;130.02;57.33;;;18.60;64.40;;;;;;4906700;28;85271;-38
2023/12/29 00:05:17;;;;;;;131.18;57.45;;;18.70;64.50;;;;;;4910024;28;86647;-43
2023/12/29 00:07:43;;;;;;;128.95;57.58;;;18.60;64.60;;;;;;4903783;28;85652;-39
2023/12/29 00:10:09;;;;;;;129.88;57.55;;;18.60;64.60;;;;;;4906122;28;85079;-39
2023/12/29 00:12:34;;;;;;;131.45;57.72;;;18.50;64.70;;;;;;4914229;28;85215;-39
2023/12/29 00:15:00;;;;;;;128.80;57.38;;;18.50;64.70;;;;;;4907049;28;85291;-39
2023/12/29 00:17:26;;;;;;;129.77;57.40;;;18.50;64.80;;;;;;4910328;28;86222;-41
2023/12/29 00:19:53;;;;;;;130.00;57.22;;;18.40;64.90;;;;;;4909959;28;89115;-38
2023/12/29 00:22:19;;;;;;;133.00;57.55;;;18.40;65.00;;;;;;4910942;28;84712;-38
2023/12/29 00:24:44;;;;;;;129.65;56.78;;;18.40;65.10;;;;;;4908515;28;85682;-38
2023/12/29 00:27:10;;;;;;;129.90;57.15;;;18.40;65.00;;;;;;4906142;28;86249;-39
2023/12/29 00:29:36;;;;;;;129.10;57.30;;;18.40;65.10;;;;;;4907690;28;85188;-38
2023/12/29 00:32:02;;;;;;;129.13;57.17;;;18.30;65.10;;;;;;4902330;28;86917;-42
2023/12/29 00:34:28;;;;;;;132.85;57.22;;;18.30;65.20;;;;;;4904237;28;85655;-39
2023/12/29 00:36:54;;;;;;;127.65;56.75;;;18.20;65.20;;;;;;4898262;28;85508;-39
2023/12/29 00:39:26;;;;;;;131.93;57.85;;;18.20;65.40;;;;;;4889684;28;84901;-38
2023/12/29 00:41:51;;;;;;;128.50;56.85;;;18.20;65.40;;;;;;4892022;28;85240;-38
2023/12/29 00:44:17;;;;;;;129.57;57.28;;;18.20;65.50;;;;;;4897835;28;85303;-43
2023/12/29 00:46:43;;;;;;;128.40;56.85;;;18.10;65.50;;;;;;4891618;28;84724;-38
2023/12/29 00:49:08;;;;;;;131.00;56.92;;;18.10;65.60;;;;;;4899968;28;85188;-40
2023/12/29 00:51:41;;;;;;;127.80;56.50;;;18.10;65.60;;;;;;4895116;28;85348;-42
2023/12/29 00:54:07;;;;;;;128.68;56.83;;;18.10;65.70;;;;;;4896333;28;87112;-39
2023/12/29 00:56:33;;;;;;;130.00;57.30;;;18.00;65.70;;;;;;4895142;28;84682;-38
2023/12/29 00:58:58;;;;;;;127.40;56.20;;;18.00;65.80;;;;;;4897777;28;84902;-37
2023/12/29 01:01:24;;;;;;;130.43;56.83;;;18.00;65.90;;;;;;4901759;28;85645;-40
2023/12/29 01:03:50;;;;;;;130.27;57.10;;;18.00;66.00;;;;;;4897013;28;85049;-41
2023/12/29 01:06:16;;;;;;;129.40;56.97;;;17.90;65.90;;;;;;4894858;28;85886;-40
2023/12/29 01:08:41;;;;;;;129.02;56.85;;;17.90;65.90;;;;;;4894518;28;88823;-39
2023/12/29 01:11:07;;;;;;;127.07;56.22;;;17.90;66.10;;;;;;4893816;28;84443;-39
2023/12/29 01:13:32;;;;;;;127.97;56.70;;;17.90;66.10;;;;;;4905287;28;85931;-42
2023/12/29 01:15:58;;;;;;;129.32;56.70;;;17.90;66.10;;;;;;4905690;28;84703;-40
2023/12/29 01:18:24;;;;;;;130.85;57.05;;;17.80;66.10;;;;;;4900441;28;84626;-41
2023/12/29 01:20:49;;;;;;;128.30;56.90;;;17.80;66.20;;;;;;4896224;28;84598;-38
2023/12/29 01:23:15;;;;;;;128.10;56.67;;;17.80;66.20;;;;;;4895464;28;84803;-40
2023/12/29 01:25:41;;;;;;;130.63;56.83;;;17.80;66.30;;;;;;4893872;28;85601;-40
2023/12/29 01:28:06;;;;;;;127.65;56.70;;;17.80;66.30;;;;;;4896234;28;86184;-40
2023/12/29 01:30:32;;;;;;;129.93;56.63;;;17.80;66.30;;;;;;4892092;28;87338;-40
2023/12/29 01:32:57;;;;;;;129.70;57.00;;;17.70;66.40;;;;;;4892144;28;85076;-38
2023/12/29 01:35:23;;;;;;;127.97;56.75;;;17.80;66.50;;;;;;4895006;28;85386;-38
2023/12/29 01:37:48;;;;;;;129.40;57.08;;;17.70;66.50;;;;;;4894005;28;89718;-38
2023/12/29 01:40:15;;;;;;;128.15;56.55;;;17.70;66.50;;;;;;4893974;28;85630;-39
2023/12/29 01:42:41;;;;;;;130.13;56.90;;;17.70;66.50;;;;;;4897741;28;85657;-39
2023/12/29 01:45:22;;;;;;;128.18;56.22;;;17.70;66.50;;;;;;4894326;28;87604;-39
2023/12/29 01:47:52;;;;;;;128.57;56.35;;;17.70;67.20;;;;;;4895043;28;84793;-38
2023/12/29 01:50:22;;;;;;;128.35;56.90;;;17.60;66.50;;;;;;4890593;28;85156;-39
2023/12/29 01:52:49;;;;;;;130.20;56.58;;;17.60;66.70;;;;;;4894295;28;85683;-39
2023/12/29 01:55:21;;;;;;;126.25;56.25;;;17.60;66.70;;;;;;4897374;28;85326;-39
2023/12/29 01:57:48;;;;;;;128.73;56.78;;;17.60;66.70;;;;;;4892991;28;86854;-38
2023/12/29 02:00:16;;;;;;;128.20;56.50;;;17.60;66.70;;;;;;4893441;28;85041;-39
2023/12/29 02:02:42;;;;;;;128.00;56.63;;;17.60;66.80;;;;;;4891881;28;87949;-40
2023/12/29 02:05:08;;;;;;;127.55;56.47;;;17.60;66.80;;;;;;4891301;28;85324;-39
2023/12/29 02:07:34;;;;;;;131.30;56.97;;;17.50;66.90;;;;;;4891798;28;85605;-38
2023/12/29 02:10:01;;;;;;;128.43;56.45;;;17.50;66.80;;;;;;4897910;28;85342;-39
2023/12/29 02:12:26;;;;;;;126.88;56.10;;;17.50;66.80;;;;;;4887353;28;85567;-39
2023/12/29 02:14:52;;;;;;;129.30;56.47;;;17.50;66.90;;;;;;4899900;28;85805;-39
2023/12/29 02:17:39;;;;;;;128.65;57.22;;;17.50;66.90;;;;;;4897993;28;85538;-39
2023/12/29 02:20:07;;;;;;;127.45;56.28;;;17.50;67.00;;;;;;4896165;28;84976;-38
2023/12/29 02:22:32;;;;;;;129.02;56.28;;;17.40;66.90;;;;;;4896096;28;90253;-39
2023/12/29 02:24:58;;;;;;;127.75;56.22;;;17.50;67.10;;;;;;4886445;28;84732;-39
2023/12/29 02:27:42;;;;;;;126.30;56.10;;;17.40;67.00;;;;;;4891818;28;84984;-39
2023/12/29 02:30:20;;;;;;;128.90;56.95;;;17.40;67.30;;;;;;4894457;28;85027;-39
2023/12/29 02:32:47;;;;;;;130.15;56.88;;;17.40;67.10;;;;;;4898433;28;85568;-41
2023/12/29 02:35:23;;;;;;;128.00;56.53;;;17.40;67.20;;;;;;4889675;28;86088;-39
2023/12/29 02:37:49;;;;;;;128.90;56.45;;;17.40;67.20;;;;;;4896290;28;84698;-39
2023/12/29 02:40:16;;;;;;;129.13;56.65;;;17.30;67.20;;;;;;4891872;28;85186;-39
2023/12/29 02:42:48;;;;;;;125.50;56.13;;;17.30;67.10;;;;;;4894861;28;86203;-38
2023/12/29 02:45:17;;;;;;;127.88;55.83;;;17.30;67.20;;;;;;4892489;28;86032;-40
2023/12/29 02:47:44;;;;;;;128.95;56.42;;;17.30;67.30;;;;;;4896918;28;84971;-40
2023/12/29 02:50:10;;;;;;;127.18;56.50;;;17.30;67.20;;;;;;4896471;28;85056;-41
2023/12/29 02:52:37;;;;;;;127.22;56.70;;;17.30;67.30;;;;;;4896068;28;86456;-39
2023/12/29 02:55:03;;;;;;;125.85;55.80;;;17.30;67.20;;;;;;4893600;28;85918;-39
2023/12/29 02:57:29;;;;;;;126.15;56.17;;;17.30;67.40;;;;;;4892860;28;87063;-41
2023/12/29 02:59:55;;;;;;;127.57;56.65;;;17.30;67.50;;;;;;4893584;28;85087;-42
2023/12/29 03:02:22;;;;;;;127.40;56.47;;;17.20;67.60;;;;;;4894877;28;85770;-40
2023/12/29 03:04:47;;;;;;;127.30;56.38;;;17.20;67.40;;;;;;4896559;28;89027;-40
2023/12/29 03:07:13;;;;;;;128.77;56.33;;;17.20;67.50;;;;;;4898404;28;84615;-40
2023/12/29 03:09:39;;;;;;;129.10;56.22;;;17.20;67.40;;;;;;4892185;28;85591;-40
2023/12/29 03:12:05;;;;;;;128.85;56.50;;;17.20;67.60;;;;;;4894758;28;85000;-39
2023/12/29 03:14:31;;;;;;;127.57;56.08;;;17.20;67.50;;;;;;4895831;28;86121;-39
2023/12/29 03:16:57;;;;;;;127.30;56.17;;;17.20;67.50;;;;;;4892976;28;85146;-39
2023/12/29 03:19:23;;;;;;;128.52;56.42;;;17.20;67.50;;;;;;4896498;28;86019;-40
2023/12/29 03:21:49;;;;;;;127.90;56.15;;;17.20;67.70;;;;;;4895610;28;84878;-39
2023/12/29 03:24:14;;;;;;;126.15;56.20;;;17.10;67.70;;;;;;4893114;28;86095;-39
2023/12/29 03:26:40;;;;;;;126.43;56.38;;;17.10;67.60;;;;;;4894921;28;86149;-40
2023/12/29 03:29:06;;;;;;;127.88;56.05;;;17.10;67.70;;;;;;4895459;28;86154;-38
2023/12/29 03:31:32;;;;;;;126.68;56.45;;;17.10;67.70;;;;;;4891727;28;88918;-41
2023/12/29 03:33:58;;;;;;;127.03;56.33;;;17.10;67.70;;;;;;4894798;28;85896;-41
2023/12/29 03:36:23;;;;;;;126.55;56.20;;;17.10;67.80;;;;;;4894232;28;85942;-40
2023/12/29 03:38:49;;;;;;;126.57;56.22;;;17.10;67.80;;;;;;4891046;28;85224;-38
2023/12/29 03:41:15;;;;;;;127.50;56.45;;;17.10;67.80;;;;;;4890137;28;86306;-38
2023/12/29 03:43:40;;;;;;;128.73;56.38;;;17.10;67.80;;;;;;4889889;28;86264;-39
2023/12/29 03:46:19;;;;;;;126.15;56.17;;;17.10;67.90;;;;;;4895572;28;85563;-39
2023/12/29 03:48:45;;;;;;;127.38;55.88;;;17.10;67.90;;;;;;4893457;28;85920;-42
2023/12/29 03:51:11;;;;;;;128.45;56.50;;;17.00;67.80;;;;;;4894252;28;85319;-39
2023/12/29 03:53:36;;;;;;;127.82;56.55;;;17.10;67.90;;;;;;4891242;28;87118;-39
2023/12/29 03:56:07;;;;;;;126.25;56.25;;;17.10;67.90;;;;;;4890302;28;85665;-39
2023/12/29 03:58:33;;;;;;;125.95;55.85;;;17.00;67.90;;;;;;4895555;28;84917;-40
2023/12/29 04:00:59;;;;;;;126.65;55.95;;;17.00;67.90;;;;;;4891580;28;85495;-41
2023/12/29 04:03:24;;;;;;;125.93;56.33;;;17.00;68.80;;;;;;4889181;28;86211;-39
2023/12/29 04:05:50;;;;;;;126.30;56.03;;;17.00;68.00;;;;;;4888645;28;85808;-39
2023/12/29 04:08:16;;;;;;;125.45;55.65;;;17.00;68.00;;;;;;4892131;28;85794;-40
2023/12/29 04:10:41;;;;;;;126.25;56.00;;;17.00;67.90;;;;;;4892890;28;85871;-39
2023/12/29 04:13:07;;;;;;;127.18;55.78;;;17.00;68.10;;;;;;4896769;28;85190;-39
2023/12/29 04:15:33;;;;;;;126.60;56.08;;;17.00;68.10;;;;;;4897576;28;84758;-38
2023/12/29 04:17:58;;;;;;;126.57;55.97;;;16.90;68.20;;;;;;4893767;28;86773;-41
2023/12/29 04:20:24;;;;;;;127.38;55.88;;;16.90;68.10;;;;;;4895651;28;85770;-40
2023/12/29 04:22:50;;;;;;;127.97;56.38;;;16.90;68.20;;;;;;4895233;28;85660;-39
2023/12/29 04:25:15;;;;;;;126.57;56.15;;;16.90;68.20;;;;;;4895015;28;85742;-40
2023/12/29 04:27:41;;;;;;;125.20;55.53;;;16.90;68.30;;;;;;4900217;28;86554;-40
2023/12/29 04:30:07;;;;;;;126.70;56.40;;;16.90;68.30;;;;;;4902748;28;85879;-39
2023/12/29 04:32:33;;;;;;;126.10;55.95;;;16.90;68.30;;;;;;4895212;28;86254;-42
2023/12/29 04:34:59;;;;;;;126.15;56.13;;;16.90;68.20;;;;;;4895831;28;85049;-40
2023/12/29 04:37:24;;;;;;;127.32;56.33;;;16.90;68.30;;;;;;4895972;28;86031;-41
2023/12/29 04:39:50;;;;;;;125.30;55.65;;;16.80;68.40;;;;;;4889719;28;85218;-39
2023/12/29 04:42:17;;;;;;;127.28;56.20;;;16.80;68.40;;;;;;4895402;28;85837;-39
2023/12/29 04:44:43;;;;;;;126.95;56.17;;;16.80;68.40;;;;;;4893779;28;84820;-41
2023/12/29 04:47:09;;;;;;;127.75;56.22;;;16.80;68.40;;;;;;4897774;28;85221;-40
2023/12/29 04:49:35;;;;;;;125.40;55.65;;;16.90;68.50;;;;;;4890870;28;85080;-39
2023/12/29 04:52:01;;;;;;;126.65;56.17;;;16.80;68.40;;;;;;4896089;28;86227;-39
2023/12/29 04:54:27;;;;;;;126.53;56.08;;;16.80;68.50;;;;;;4895155;28;85158;-39
2023/12/29 04:56:52;;;;;;;125.20;56.22;;;16.80;68.50;;;;;;4896678;28;86677;-41
2023/12/29 04:59:18;;;;;;;129.43;56.20;;;16.80;68.50;;;;;;4897479;28;85395;-41
2023/12/29 05:01:44;;;;;;;125.68;56.00;;;16.80;68.50;;;;;;4895818;28;85614;-40
2023/12/29 05:04:09;;;;;;;124.22;55.83;;;16.80;68.60;;;;;;4893581;28;85606;-41
2023/12/29 05:06:35;;;;;;;127.97;56.20;;;16.80;68.50;;;;;;4896180;28;85188;-40
2023/12/29 05:09:01;;;;;;;126.40;56.50;;;16.80;68.50;;;;;;4895143;28;85490;-40
2023/12/29 05:11:26;;;;;;;126.57;55.85;;;16.80;68.60;;;;;;4895349;28;86108;-43
2023/12/29 05:13:52;;;;;;;126.38;56.10;;;16.80;68.60;;;;;;4897513;28;85984;-39
2023/12/29 05:16:17;;;;;;;127.03;56.10;;;16.70;68.70;;;;;;4897975;28;85175;-40
2023/12/29 05:18:43;;;;;;;125.45;55.58;;;16.70;68.70;;;;;;4894299;28;85319;-41
2023/12/29 05:21:19;;;;;;;126.63;56.38;;;16.70;68.60;;;;;;4899986;28;85055;-41
2023/12/29 05:23:45;;;;;;;124.47;55.63;;;16.70;68.60;;;;;;4896937;28;86497;-41
2023/12/29 05:26:12;;;;;;;125.65;56.25;;;16.70;68.70;;;;;;4895915;28;85241;-47
2023/12/29 05:28:37;;;;;;;126.10;56.35;;;16.70;68.70;;;;;;4899147;28;84811;-47
2023/12/29 05:31:04;;;;;;;126.32;55.45;;;16.70;68.70;;;;;;4892648;28;89369;-47
2023/12/29 05:33:33;;;;;;;124.25;55.38;;;16.70;68.80;;;;;;4896418;28;85823;-48
2023/12/29 05:36:05;;;;;;;125.38;55.80;;;16.70;68.80;;;;;;4897271;28;85249;-47
2023/12/29 05:38:31;;;;;;;126.97;56.03;;;16.70;68.90;;;;;;4895559;28;85173;-40
2023/12/29 05:40:57;;;;;;;126.32;55.92;;;16.70;68.90;;;;;;4890887;28;85270;-38
2023/12/29 05:43:22;;;;;;;125.28;55.70;;;16.70;69.00;;;;;;4895402;28;87044;-38
2023/12/29 05:45:48;;;;;;;125.68;56.05;;;16.70;69.00;;;;;;4893942;28;85205;-40
2023/12/29 05:48:14;;;;;;;126.38;55.78;;;16.70;69.10;;;;;;4895762;28;85550;-40
2023/12/29 05:50:39;;;;;;;125.53;55.42;;;16.70;69.30;;;;;;4894610;28;85712;-39
2023/12/29 05:53:06;;;;;;;128.48;56.00;;;16.60;69.20;;;;;;4899490;28;85191;-40
2023/12/29 05:55:31;;;;;;;125.47;55.47;;;16.60;69.30;;;;;;4895606;28;85674;-40
2023/12/29 05:57:57;;;;;;;123.85;55.33;;;16.60;69.30;;;;;;4895566;28;85712;-39
2023/12/29 06:00:22;;;;;;;127.00;55.72;;;16.60;69.30;;;;;;4891875;28;85160;-40
2023/12/29 06:02:48;;;;;;;126.18;55.75;;;16.60;69.40;;;;;;4894112;28;84520;-38
2023/12/29 06:05:14;;;;;;;125.95;56.20;;;16.60;69.50;;;;;;4892794;28;86665;-38
2023/12/29 06:07:40;;;;;;;126.97;56.13;;;16.60;69.40;;;;;;4895948;28;87291;-37
2023/12/29 06:10:06;;;;;;;125.72;55.90;;;16.60;69.50;;;;;;4891878;28;86208;-39
2023/12/29 06:12:31;;;;;;;125.47;55.33;;;16.60;69.50;;;;;;4895973;28;85647;-38
2023/12/29 06:14:57;;;;;;;125.65;55.88;;;16.60;69.50;;;;;;4899336;28;89676;-38
2023/12/29 06:17:23;;;;;;;126.95;55.70;;;16.60;69.60;;;;;;4904653;28;85655;-38
2023/12/29 06:19:48;;;;;;;127.57;56.03;;;16.60;69.70;;;;;;4891044;28;85536;-40
2023/12/29 06:22:14;;;;;;;125.00;55.67;;;16.60;69.80;;;;;;4893187;28;85501;-39
2023/12/29 06:24:43;;;;;;;126.57;55.75;;;16.60;69.70;;;;;;4890890;28;85254;-38
2023/12/29 06:27:09;;;;;;;126.10;56.10;;;16.50;69.70;;;;;;4895530;28;84587;-39
2023/12/29 06:29:35;;;;;;;128.32;56.08;;;16.50;69.80;;;;;;4896168;28;89294;-38
2023/12/29 06:32:01;;;;;;;124.95;55.45;;;16.50;69.70;;;;;;4896717;28;87313;-40
2023/12/29 06:34:26;;;;;;;126.10;56.08;;;16.50;69.70;;;;;;4895230;28;85606;-39
2023/12/29 06:36:52;;;;;;;125.22;55.63;;;16.50;69.90;;;;;;4891576;28;89653;-39
2023/12/29 06:39:18;;;;;;;124.78;55.58;;;16.60;69.90;;;;;;4894658;28;84852;-38
2023/12/29 06:41:43;;;;;;;127.43;55.05;;;16.50;69.90;;;;;;4892452;28;85123;-38
2023/12/29 06:44:10;;;;;;;124.72;55.42;;;16.50;69.80;;;;;;4896820;28;84656;-38
2023/12/29 06:46:39;;;;;;;126.70;55.72;;;16.50;69.90;;;;;;4892969;28;85511;-38
2023/12/29 06:49:08;;;;;;;126.03;55.65;;;16.50;70.00;;;;;;4896476;28;84975;-39
2023/12/29 06:51:34;;;;;;;126.25;55.92;;;16.50;70.00;;;;;;4892817;28;86338;-39
2023/12/29 06:54:00;;;;;;;128.02;55.88;;;16.50;70.20;;;;;;4892612;28;84867;-38
2023/12/29 06:56:26;;;;;;;125.40;55.72;;;16.50;70.20;;;;;;4891602;28;86246;-40
2023/12/29 06:58:51;;;;;;;125.53;55.67;;;16.50;70.10;;;;;;4895089;28;86291;-39
2023/12/29 07:01:17;;;;;;;125.32;55.75;;;16.40;70.10;;;;;;4890202;28;86449;-38
2023/12/29 07:03:43;;;;;;;126.05;55.72;;;16.50;70.30;;;;;;4899355;28;90669;-39
2023/12/29 07:06:10;;;;;;;124.68;55.58;;;16.50;70.30;;;;;;4890788;28;85148;-39
2023/12/29 07:08:36;;;;;;;125.57;55.85;;;16.50;70.40;;;;;;4895986;28;86487;-40
2023/12/29 07:11:02;;;;;;;123.88;55.30;;;16.50;70.30;;;;;;4894633;28;85365;-39
2023/12/29 07:13:28;;;;;;;123.75;54.67;;;16.40;70.20;;;;;;4896685;28;84529;-39
2023/12/29 07:15:55;;;;;;;127.63;55.88;;;16.40;70.30;;;;;;4896473;28;84574;-40
2023/12/29 07:18:21;;;;;;;125.63;55.95;;;16.40;70.50;;;;;;4901168;28;85189;-40
2023/12/29 07:20:46;;;;;;;130.20;55.92;;;16.40;70.50;;;;;;4889276;28;85914;-39
2023/12/29 07:23:12;;;;;;;126.80;55.47;;;16.40;70.40;;;;;;4891513;28;88458;-39
2023/12/29 07:25:37;;;;;;;125.60;55.42;;;16.40;70.40;;;;;;4895425;28;84921;-38
2023/12/29 07:28:03;;;;;;;126.38;55.70;;;16.40;70.40;;;;;;4894332;28;85898;-39
2023/12/29 07:30:29;;;;;;;125.72;55.50;;;16.40;70.40;;;;;;4895640;28;85262;-37
2023/12/29 07:32:55;;;;;;;126.32;55.17;;;16.40;70.50;;;;;;4895130;28;84622;-39
2023/12/29 07:35:20;;;;;;;124.30;55.25;;;16.40;70.60;;;;;;4894291;28;89199;-42
2023/12/29 07:37:46;;;;;;;124.75;55.13;;;16.40;70.60;;;;;;4891387;28;86532;-39
2023/12/29 07:40:13;;;;;;;126.53;55.92;;;16.40;70.60;;;;;;4891276;28;89549;-40
2023/12/29 07:42:44;;;;;;;124.90;55.35;;;16.40;70.60;;;;;;4895162;28;85546;-41
2023/12/29 07:45:10;;;;;;;126.40;55.30;;;16.40;70.60;;;;;;4893899;28;86010;-39
2023/12/29 07:47:36;;;;;;;125.13;55.58;;;16.40;70.60;;;;;;4897835;28;91351;-38
2023/12/29 07:50:02;;;;;;;125.88;55.72;;;16.40;70.70;;;;;;4896872;28;89798;-39
2023/12/29 07:52:29;;;;;;;124.13;55.03;;;16.40;70.60;;;;;;4896465;28;87282;-40
2023/12/29 07:54:55;;;;;;;124.70;55.58;;;16.40;70.60;;;;;;4897055;28;84689;-41
2023/12/29 07:57:21;;;;;;;127.22;55.78;;;16.40;70.60;;;;;;4898270;28;86616;-39
2023/12/29 07:59:46;;;;;;;125.38;55.83;;;16.40;70.70;;;;;;4900548;28;89859;-38
2023/12/29 08:02:12;;;;;;;125.63;55.58;;;16.40;70.70;;;;;;4902500;28;88772;-39
2023/12/29 08:04:38;;;;;;;124.68;55.25;;;16.40;70.70;;;;;;4894642;28;86514;-38
2023/12/29 08:07:04;;;;;;;124.10;55.25;;;16.40;70.80;;;;;;4896032;28;85118;-38
2023/12/29 08:09:30;;;;;;;125.03;55.60;;;16.40;70.60;;;;;;4886174;28;87792;-38
2023/12/29 08:11:56;;;;;;;125.18;55.58;;;16.40;70.60;;;;;;4888514;28;86094;-39
2023/12/29 08:14:22;;;;;;;124.10;55.05;;;16.40;70.60;;;;;;4892225;28;85955;-38
2023/12/29 08:16:47;;;;;;;124.82;55.90;;;16.30;70.60;;;;;;4892911;28;85706;-38
2023/12/29 08:19:15;;;;;;;125.43;55.25;;;16.30;70.60;;;;;;4889086;28;86146;-39
2023/12/29 08:21:40;;;;;;;126.32;55.70;;;16.40;71.40;;;;;;4886318;28;85607;-41
2023/12/29 08:24:06;;;;;;;125.13;55.70;;;16.40;70.70;;;;;;4886909;28;86209;-38
2023/12/29 08:26:32;;;;;;;126.28;55.80;;;16.40;70.60;;;;;;4893928;28;85974;-40
2023/12/29 08:28:58;;;;;;;125.65;55.15;;;16.40;70.60;;;;;;4894713;28;84919;-38
2023/12/29 08:31:23;;;;;;;124.32;55.38;;;16.40;70.60;;;;;;4891312;28;86463;-38
2023/12/29 08:33:49;;;;;;;125.05;55.72;;;16.40;70.70;;;;;;4894138;28;85648;-40
2023/12/29 08:36:19;;;;;;;125.57;55.50;;;16.40;70.60;;;;;;4883680;28;85889;-38
2023/12/29 08:38:45;;;;;;;126.30;55.83;;;16.30;70.70;;;;;;4887540;28;85184;-40
2023/12/29 08:41:13;;;;;;;124.40;55.67;;;16.40;70.70;;;;;;4904739;28;84756;-39
2023/12/29 08:43:39;;;;;;;125.88;55.17;;;16.30;70.70;;;;;;4900346;28;85594;-38
2023/12/29 08:46:05;;;;;;;124.65;55.33;;;16.40;70.90;;;;;;4909161;28;86099;-38
2023/12/29 08:48:30;;;;;;;124.07;55.45;;;16.30;70.90;;;;;;4904073;28;84540;-38
2023/12/29 08:50:56;;;;;;;124.00;55.05;;;16.40;70.90;;;;;;4890755;28;85618;-40
2023/12/29 08:53:22;;;;;;;125.43;55.15;;;16.40;70.90;;;;;;4899054;28;84917;-38
2023/12/29 08:55:47;;;;;;;124.85;55.60;;;16.30;71.00;;;;;;4898968;28;85204;-38
2023/12/29 08:58:13;;;;;;;124.63;55.28;;;16.30;71.00;;;;;;4897093;28;86447;-39
2023/12/29 09:00:39;;;;;;;123.78;55.33;;;16.40;71.20;;;;;;4904077;28;86465;-38
2023/12/29 09:03:05;;;;;;;126.30;55.15;;;16.40;71.10;;;;;;4899645;28;84998;-38
2023/12/29 09:05:30;;;;;;;132.45;55.72;;;16.40;71.20;;;;;;4906352;28;85006;-38
2023/12/29 09:07:56;;;;;;;125.40;55.58;;;16.40;71.20;;;;;;4899725;28;84780;-39
2023/12/29 09:10:22;;;;;;;133.90;55.95;;;16.40;71.20;;;;;;4900663;28;84759;-38
2023/12/29 09:12:49;;;;;;;126.72;55.90;;;16.40;71.40;;;;;;4895989;28;85655;-39
2023/12/29 09:15:15;;;;;;;125.68;55.67;;;16.40;71.40;;;;;;4903849;28;85435;-38
2023/12/29 09:17:40;;;;;;;132.15;55.78;;;16.30;71.50;;;;;;4904217;28;84807;-38
2023/12/29 09:20:07;;;;;;;126.05;55.65;;;16.30;71.70;;;;;;4892704;28;86229;-39
2023/12/29 09:22:33;;;;;;;129.38;56.28;;;16.30;71.90;;;;;;4891638;28;85500;-39
2023/12/29 09:24:59;;;;;;;127.07;55.22;;;16.50;72.40;;;;;;4904382;28;85338;-37
2023/12/29 09:27:25;;;;;;;127.97;56.15;;;16.60;72.60;;;;;;4900203;28;85469;-44
2023/12/29 09:29:50;;;;;;;127.90;56.17;;;16.70;72.00;;;;;;4892012;28;84986;-38
2023/12/29 09:32:16;;;;;;;127.20;56.03;;;16.80;71.70;;;;;;4891633;28;90250;-41
2023/12/29 09:34:42;;;;;;;128.30;55.95;;;16.80;71.50;;;;;;4896871;28;89280;-38
2023/12/29 09:37:08;;;;;;;129.10;55.88;;;16.80;71.40;;;;;;4888399;28;86228;-44
2023/12/29 09:39:34;;;;;;;131.18;56.00;;;16.80;71.30;;;;;;4894114;28;84660;-44
2023/12/29 09:42:01;;;;;;;130.25;56.45;;;16.80;71.50;;;;;;4892336;28;85772;-40
2023/12/29 09:44:30;;;;;;;127.07;56.00;;;16.80;71.50;;;;;;4903434;28;85576;-44
2023/12/29 09:47:01;;;;;;;130.35;56.50;;;16.80;70.90;;;;;;4890882;28;86072;-41
2023/12/29 09:49:30;;;;;;;127.43;56.33;;;16.80;71.70;;;;;;4898639;28;84942;-44
2023/12/29 09:51:58;;;;;;;126.40;56.22;;;16.80;71.70;;;;;;4901047;28;84811;-41
2023/12/29 09:54:24;;;;;;;127.80;56.38;;;16.80;71.70;;;;;;4899248;28;85490;-45
2023/12/29 09:56:51;;;;;;;133.13;56.85;;;16.80;71.80;;;;;;4900839;28;89621;-43
2023/12/29 09:59:16;;;;;;;127.88;56.60;;;16.90;71.60;;;;;;4904113;28;85208;-39
2023/12/29 10:01:45;;;;;;;125.53;55.83;;;16.90;71.60;;;;;;4903073;28;84930;-42
2023/12/29 10:04:11;;;;;;;130.27;56.55;;;16.90;71.70;;;;;;4905706;28;84725;-52
2023/12/29 10:06:41;;;;;;;128.07;56.15;;;16.90;71.60;;;;;;4898106;28;85324;-48
2023/12/29 10:09:10;;;;;;;133.40;57.15;;;16.90;71.70;;;;;;4896562;28;84870;-44
2023/12/29 10:11:38;;;;;;;131.02;56.58;;;17.00;72.00;;;;;;4904642;28;85247;-48
2023/12/29 10:14:21;;;;;;;127.15;56.30;;;17.00;71.40;;;;;;4899624;28;85695;-42
2023/12/29 10:17:01;;;;;;;130.35;56.60;;;17.10;71.60;;;;;;4894883;28;85797;-47
2023/12/29 10:19:37;;;;;;;128.50;56.80;;;17.10;71.70;;;;;;4895325;28;85493;-38
2023/12/29 10:22:14;;;;;;;127.95;56.83;;;17.10;71.70;;;;;;4898668;28;85580;-40
2023/12/29 10:24:42;;;;;;;131.63;56.67;;;17.10;71.50;;;;;;4895974;28;85792;-44
2023/12/29 10:27:08;;;;;;;131.90;57.13;;;17.10;71.50;;;;;;4903303;28;84782;-43
2023/12/29 10:29:34;;;;;;;129.45;57.28;;;17.10;71.70;;;;;;4901169;28;84562;-44
2023/12/29 10:31:59;;;;;;;126.95;56.25;;;17.10;71.70;;;;;;4895807;28;85811;-38
2023/12/29 10:34:43;;;;;;;128.60;56.60;;;17.10;71.80;;;;;;4898047;28;85225;-38
2023/12/29 10:37:13;;;;;;;130.02;56.95;;;17.10;72.00;;;;;;4895713;28;85186;-44
2023/12/29 10:39:39;;;;;;;129.98;56.92;;;17.10;72.10;;;;;;4900973;28;90132;-41
2023/12/29 10:42:06;;;;;;;128.35;56.58;;;17.20;71.30;;;;;;4898097;28;84707;-43
2023/12/29 10:44:33;;;;;;;127.60;56.53;;;17.20;72.30;;;;;;4897736;28;85019;-42
2023/12/29 10:47:07;;;;;;;129.07;56.85;;;17.20;71.30;;;;;;4904248;28;86453;-41
2023/12/29 10:49:32;;;;;;;130.07;56.95;;;17.20;71.30;;;;;;4902967;28;84612;-40
2023/12/29 10:51:58;;;;;;;131.07;56.35;;;17.20;71.20;;;;;;4897594;28;85019;-41
2023/12/29 10:54:24;;;;;;;127.55;56.33;;;17.10;71.40;;;;;;4899307;28;85108;-40
2023/12/29 10:57:02;;;;;;;130.05;56.78;;;17.10;71.30;;;;;;4902153;28;85153;-42
2023/12/29 10:59:28;;;;;;;128.80;56.50;;;17.20;71.50;;;;;;4897434;28;87654;-41
2023/12/29 11:01:54;;;;;;;128.85;56.65;;;17.30;71.20;;;;;;4895065;28;85257;-45
2023/12/29 11:04:22;;;;;;;127.80;56.20;;;17.30;71.30;;;;;;4897714;28;89622;-45
2023/12/29 11:06:51;;;;;;;130.43;56.35;;;17.40;71.00;;;;;;4894652;28;85381;-43
2023/12/29 11:09:34;;;;;;;128.63;56.97;;;17.50;70.70;;;;;;4899156;28;85194;-43
2023/12/29 11:12:01;;;;;;;132.57;56.92;;;17.50;70.80;;;;;;4900110;28;85959;-45
2023/12/29 11:14:30;;;;;;;130.07;57.45;;;17.60;70.60;;;;;;4902780;28;85043;-39
2023/12/29 11:16:58;;;;;;;128.88;57.60;;;17.70;70.60;;;;;;4902841;28;85162;-42
2023/12/29 11:19:24;;;;;;;129.00;57.13;;;17.70;70.30;;;;;;4900888;28;84920;-48
2023/12/29 11:21:54;;;;;;;128.50;56.80;;;17.80;70.30;;;;;;4896817;28;85081;-47
2023/12/29 11:24:21;;;;;;;128.45;56.83;;;17.70;70.10;;;;;;4898660;28;85118;-45
2023/12/29 11:26:48;;;;;;;129.10;57.75;;;17.80;70.10;;;;;;4902104;28;86479;-46
2023/12/29 11:29:15;;;;;;;129.40;57.15;;;17.80;70.20;;;;;;4897664;28;84873;-45
2023/12/29 11:31:41;;;;;;;130.38;57.65;;;17.80;70.00;;;;;;4899536;28;85795;-41
2023/12/29 11:34:16;;;;;;;132.38;58.63;;;17.90;70.20;;;;;;4899209;28;85305;-43
2023/12/29 11:36:46;;;;;;;139.70;65.55;;;17.80;70.10;;;;;;4899448;28;84574;-48
2023/12/29 11:39:18;;;;;;;144.32;70.28;;;17.80;70.30;;;;;;4898000;28;85107;-41
2023/12/29 11:42:10;;;;;;;143.13;69.40;;;17.90;70.40;;;;;;4901035;28;84679;-46
2023/12/29 11:44:36;;;;;;;143.95;68.70;;;17.90;70.20;;;;;;4899947;28;85909;-45
2023/12/29 11:47:02;;;;;;;143.13;67.68;;;18.00;70.20;;;;;;4899969;28;85154;-46
2023/12/29 11:50:00;;;;;;;140.38;66.85;;;18.10;70.30;;;;;;4900801;28;85878;-48
2023/12/29 11:52:38;;;;;;;140.73;65.95;;;18.10;70.20;;;;;;4899070;28;86635;-49
2023/12/29 11:55:20;;;;;;;138.98;66.22;;;18.10;69.90;;;;;;4902601;28;86061;-51
2023/12/29 11:57:46;;;;;;;140.43;65.43;;;18.20;70.00;;;;;;4891644;28;89430;-43
2023/12/29 12:00:12;;;;;;;136.52;63.50;;;18.20;69.60;;;;;;4893152;28;86003;-44
2023/12/29 12:02:38;;;;;;;138.68;63.88;;;18.20;69.50;;;;;;4898532;28;85716;-42
2023/12/29 12:05:04;;;;;;;135.85;63.25;;;18.20;69.50;;;;;;4898162;28;84896;-43
2023/12/29 12:07:33;;;;;;;136.18;63.38;;;18.20;69.70;;;;;;4894454;28;86776;-40
2023/12/29 12:10:20;;;;;;;145.23;71.57;;;18.20;69.40;;;;;;4895343;28;85194;-43
2023/12/29 12:12:51;;;;;;;153.32;78.47;;;18.20;69.50;;;;;;4896084;28;85412;-41
2023/12/29 12:15:29;;;;;;;154.68;78.25;;;18.30;69.50;;;;;;4900461;28;84759;-45
2023/12/29 12:18:07;;;;;;;152.50;78.22;;;18.40;69.60;;;;;;4902899;28;85211;-49